AirNav   Everest Fuels
 
 414 users online  

KMMK Meriden Markham Municipal Airport
Meriden, Connecticut, USA

GOING TO MERIDEN?


FAA INFORMATION EFFECTIVE 01 DECEMBER 2022

Location

FAA Identifier: MMK
Lat/Long: 41-30-31.3730N 072-49-46.1220W
41-30.522883N 072-49.768700W
41.5087147,-72.8294783
(estimated)
Elevation: 103 ft. / 31.4 m (surveyed)
Variation: 14W (1995)
From city: 3 miles SW of MERIDEN, CT
Time zone: UTC -5 (UTC -4 during Daylight Saving Time)
Zip code: 06492

Airport Operations

Airport use: Open to the public
Activation date: 04/1940
Control tower: no
ARTCC: BOSTON CENTER
FSS: BRIDGEPORT FLIGHT SERVICE STATION
NOTAMs facility: MMK (NOTAM-D service available)
Attendance: MON-SUN 0900-1700
Wind indicator: lighted
Segmented circle: yes
Lights: ACTVT REIL RWY 36; MIRL RWY 18/36 - CTAF.
Beacon: white-green (lighted land airport)
Operates sunset to sunrise.

Airport Communications

CTAF/UNICOM: 123.05
WX ASOS: 134.925 (203-639-9405)
YANKEE APPROACH: 127.8
YANKEE DEPARTURE: 127.8
CLEARANCE DELIVERY: 120.65
WX AWOS-AV at CT71 (12 nm N): 129.825
WX AWOS-3PT at OXC (14 nm W): 132.975 (203-262-1190)
WX ASOS at HVN (15 nm S): PHONE 203-466-6205
WX ASOS at HFD (16 nm NE): PHONE 860-527-5837
WX AWOS-3 at SNC (16 nm SE): 118.325 (860-526-1551)

Nearby radio navigation aids

VOR radial/distance  VOR name  Freq  Var
MADr345/13.2MADISON VOR/DME110.4013W
HFDr251/14.9HARTFORD VOR/DME114.9013W
BDRr044/24.8BRIDGEPORT VOR/DME108.8012W
CCCr011/34.8CALVERTON VOR/DME117.2013W
CMKr080/36.5CARMEL VOR/DME116.6012W
GONr301/36.6GROTON VOR/DME110.8514W
ORWr280/37.4NORWICH VOR/DME110.0014W
PWLr126/38.0PAWLING VOR/DME114.3012W
BAFr201/39.5BARNES VORTAC113.0014W

Airport Services

Fuel available: 100LL
100LL:SELF SVC FUEL.
Parking: tiedowns
Airframe service: MAJOR
Powerplant service: MAJOR
Bottled oxygen: NONE
Bulk oxygen: NONE

Runway Information

Runway 18/36

Dimensions: 3100 x 75 ft. / 945 x 23 m
Surface: asphalt, in good condition
Weight bearing capacity: 
Single wheel: 30.0
Runway edge lights: medium intensity
RUNWAY 18  RUNWAY 36
Latitude: 41-30.765183N41-30.280600N
Longitude: 072-49.875433W072-49.661983W
Elevation: 103.0 ft.98.6 ft.
Traffic pattern: leftleft
Runway heading: 176 magnetic, 162 true356 magnetic, 342 true
Markings: nonprecision, in good conditionnonprecision, in good condition
Visual slope indicator: 4-light PAPI on left (3.50 degrees glide path)
Runway end identifier lights: yes
Touchdown point: yes, no lightsyes, no lights
Obstructions: 60 ft. tree, 700 ft. from runway, 250 ft. left of centerline, 8:1 slope to clear
5 FT BRUSH, 0 FT DSTC, 161 FT R, 8 FT BR, 190 FT DSTC.
75 ft. tree, marked and lighted, 975 ft. from runway, 305 ft. right of centerline, 10:1 slope to clear

Airport Ownership and Management from official FAA records

Ownership: Publicly-owned
Owner: CITY OF MERIDEN
CITY MANAGER, CITY HALL, 142 E MAIN ST
MERIDEN, CT 06450
Phone (203) 630-4115
Manager: CONSTANCE CASTILLO
213 EVANSVILLE AVENUE
MERIDEN, CT 06451
Phone 203-630-2878

Airport Operational Statistics

Aircraft based on the field: 45
Single engine airplanes: 45
    
Aircraft operations: avg 147/day *
53% local general aviation
44% transient general aviation
3% air taxi
<1% military
* for 12-month period ending 22 August 2022

Additional Remarks

RWY 36 NO TGLS.
CRANES 150 FT AGL, 0.25 MI NW AER 18, LGTD. OPER INTMT DALGT HRS.
PPR FOR JET ACFT.
CALM WIND RWY 18.
STD LEFT TFC, BOTH RWYS.
FOR CD CTC YANKEE APCH AT 860-386-3597.
CTN DEER, COYOTES & BIRDS ON & INVOF ARPT.

Instrument Procedures

NOTE: All procedures below are presented as PDF files. If you need a reader for these files, you should download the free Adobe Reader.

NOT FOR NAVIGATION. Please procure official charts for flight.
FAA instrument procedures published for use from 01 December 2022 at 0901Z to 29 December 2022 at 0900z.

 
IAPs - Instrument Approach Procedures
RNAV (GPS) RWY 36   download (197KB)
VOR RWY 36   download (256KB)
NOTE: Special Alternate Minimums apply   download (81KB)
NOTE: Special Take-Off Minimums/Departure Procedures apply   download (178KB)

Other nearby airports with instrument procedures:

4B8 - Robertson Field Airport (11 nm N)
KOXC - Waterbury-Oxford Airport (14 nm W)
KHVN - Tweed/New Haven Airport (15 nm S)
KHFD - Hartford-Brainard Airport (16 nm NE)
KSNC - Chester Airport (16 nm SE)
 
Loc | Ops | Rwys | IFR | FBO | Links
Com | Nav | Svcs | Stats | Notes

Silver City Flying Club
 
Area around KMMK (Meriden Markham Municipal Airport)
 
Road maps at: MapQuest Bing Google
 
Aerial photo
WARNING: Photo may not be current or correct
Aerial photo of KMMK (Meriden Markham Municipal Airport)
Photo courtesy of Stephen Taylor Photo
Photo taken 19-Aug-2012
looking southeast.

Do you have a better or more recent aerial photo of Meriden Markham Municipal Airport that you would like to share? If so, please send us your photo.

 
Sectional chart

 
Airport distance calculator
Flying to Meriden Markham Municipal Airport? Find the distance to fly.

From to KMMK

Sunrise and sunset
Times for 01-Dec-2022
 Local
(UTC-5)
 Zulu
(UTC)
Morning civil twilight06:2811:28
Sunrise06:5911:59
Sunset16:2121:21
Evening civil twilight16:5221:52

Current date and time
Zulu (UTC)  01-Dec-2022 09:27:32
Local (UTC-5)  01-Dec-2022 04:27:32
 
METAR
KMMK 010853Z AUTO 27005KT 10SM BKN065 03/M07 A2992 RMK AO2 SLP132 T00331072 51030
KOXC 
13nm W 
010851Z AUTO 26007KT 10SM SCT055 01/M07 A2990 RMK AO2 SLP141 T00111072 51025 FZRANO
KHVN 
15nm S 
010853Z AUTO 28008G18KT 10SM BKN065 05/M06 A2994 RMK AO2 SLP139 T00501056 51037
KHFD 
16nm NE 
010853Z 31005KT 10SM OVC070 04/M04 A2991 RMK AO2 SLP127 T00441044 51026
KSNC 
16nm SE 
010915Z AUTO 26006G11KT 10SM BKN055 03/M07 A2992 RMK AO2
TAF
KBDR 
25nm SW 
010523Z 0106/0206 28017G26KT P6SM SKC FM012200 29010KT P6SM SKC FM020500 29005KT P6SM SKC
KBDL 
26nm N 
010540Z 0106/0212 29013G23KT P6SM SCT040 FM011400 29018G34KT P6SM SCT050 FM020000 29013G24KT P6SM SCT250 FM020500 28005KT P6SM FEW130 FM021000 00000KT P6SM FEW120
NOTAMs
Click for the latest NOTAMs
NOTAMs are issued by the DoD/FAA and will open in a separate window not controlled by AirNav.

 

 
 

FBO, Fuel Providers, and Aircraft Ground Support

  
 Business Name 
 
 Contact 
 
 Services / Description 
 
Fuel Prices
 
Comments
  
City of Meriden 203-630-2878 Aviation fuel, Computerized weather, Internet access, Restrooms

More info about City of Meriden
Phillips 66
100LL
SS $6.65 
 Updated 14-Oct-2022
 
   write
SS=Self service
Update Fuel Prices
 

Would you like to see your business listed on this page?

 If your business provides an interesting product or service to pilots, flight crews, aircraft, or users of the Meriden Markham Municipal Airport, you should consider listing it here.  To start the listing process, click on the button below
 
Add a business
 

Other Pages about Meriden Markham Municipal Airport

Update a link
 
Copyright © AirNav, LLC. All rights reserved. Privacy Policy  Contact